createdAt,value
2022-12-27T00:00:07.534Z,-3.94
2022-12-27T00:05:16.431Z,-3.98
2022-12-27T00:10:18.979Z,-4.01
2022-12-27T00:15:21.559Z,-3.95
2022-12-27T00:20:24.094Z,-3.96
2022-12-27T00:25:26.732Z,-3.85
2022-12-27T00:30:29.207Z,-3.84
2022-12-27T00:35:31.720Z,-3.86
2022-12-27T00:40:34.188Z,-3.86
2022-12-27T00:45:36.761Z,-3.91
2022-12-27T00:50:44.336Z,-3.95
2022-12-27T00:55:46.873Z,-4.12
2022-12-27T01:00:50.302Z,-4.04
2022-12-27T01:05:52.776Z,-4.13
2022-12-27T01:10:55.426Z,-4.12
2022-12-27T01:15:58.233Z,-4.11
2022-12-27T01:21:05.499Z,-4.15
2022-12-27T01:26:13.133Z,-4.16
2022-12-27T01:31:19.877Z,-4.15
2022-12-27T01:36:23.889Z,-4.39
2022-12-27T01:41:48.758Z,-4.30
2022-12-27T01:46:51.311Z,-4.26
2022-12-27T01:51:54.037Z,-4.23
2022-12-27T01:56:57.764Z,-4.13
2022-12-27T02:02:01.527Z,-4.13
2022-12-27T02:07:06.219Z,-4.21
2022-12-27T02:12:10.393Z,-4.00
2022-12-27T02:17:18.903Z,-4.06
2022-12-27T02:22:30.334Z,-4.03
2022-12-27T02:27:38.651Z,-4.03
2022-12-27T02:32:46.238Z,-4.16
2022-12-27T02:38:01.588Z,-4.19
2022-12-27T02:43:23.932Z,-4.22
2022-12-27T02:48:47.883Z,-4.16
2022-12-27T02:54:01.767Z,-4.15
2022-12-27T02:59:28.246Z,-4.19
2022-12-27T03:05:00.577Z,-4.20
2022-12-27T03:11:02.297Z,-4.23
2022-12-27T03:16:27.203Z,-4.20
2022-12-27T03:21:58.856Z,-4.28
2022-12-27T03:27:05.164Z,-4.33
2022-12-27T03:32:30.721Z,-4.36
2022-12-27T03:37:57.145Z,-4.40
2022-12-27T03:43:12.238Z,-4.39
2022-12-27T03:48:21.548Z,-4.42
2022-12-27T03:53:31.494Z,-4.22
2022-12-27T03:58:34.354Z,-4.15
2022-12-27T04:03:36.898Z,-4.02
2022-12-27T04:08:59.860Z,-3.88
2022-12-27T04:14:21.007Z,-3.81
2022-12-27T04:19:41.823Z,-3.71
2022-12-27T04:25:03.027Z,-3.72
2022-12-27T04:30:24.756Z,-3.67
2022-12-27T04:35:27.245Z,-3.68
2022-12-27T04:40:48.047Z,-3.50
2022-12-27T04:46:09.011Z,-3.30
2022-12-27T04:51:30.252Z,-3.28
2022-12-27T04:56:33.151Z,-3.53
2022-12-27T05:01:54.086Z,-3.62
2022-12-27T05:06:58.851Z,-3.75
2022-12-27T05:12:19.661Z,-3.67
2022-12-27T05:17:23.173Z,-3.53
2022-12-27T05:22:44.209Z,-3.65
2022-12-27T05:27:46.714Z,-3.82
2022-12-27T05:32:54.299Z,-3.82
2022-12-27T05:37:57.485Z,-3.78
2022-12-27T05:43:03.746Z,-3.94
2022-12-27T05:48:06.490Z,-3.91
2022-12-27T05:53:08.970Z,-3.83
2022-12-27T05:58:11.815Z,-3.88
2022-12-27T06:03:14.442Z,-3.89
2022-12-27T06:08:17.279Z,-3.78
2022-12-27T06:13:20.511Z,-3.90
2022-12-27T06:18:27.193Z,-3.90
2022-12-27T06:23:29.872Z,-3.65
2022-12-27T06:28:35.609Z,-3.73
2022-12-27T06:33:39.896Z,-3.72
2022-12-27T06:38:43.895Z,-3.76
2022-12-27T06:43:47.306Z,-3.78
2022-12-27T06:48:53.024Z,-3.54
2022-12-27T06:53:55.608Z,-3.17
2022-12-27T06:58:58.249Z,-3.35
2022-12-27T07:04:01.418Z,-3.20
2022-12-27T07:09:09.145Z,-3.32
2022-12-27T07:14:11.644Z,-3.30
2022-12-27T07:19:14.900Z,-3.12
2022-12-27T07:24:18.953Z,-2.61
2022-12-27T07:29:21.463Z,-2.61
2022-12-27T07:34:26.250Z,-2.53
2022-12-27T07:39:31.567Z,-2.64
2022-12-27T07:44:34.737Z,-2.62
2022-12-27T07:49:37.233Z,-2.55
2022-12-27T07:54:39.730Z,-2.37
2022-12-27T07:59:42.255Z,-2.38
2022-12-27T08:04:47.213Z,-2.54
2022-12-27T08:09:49.865Z,-2.50
2022-12-27T08:14:52.404Z,-2.19
2022-12-27T08:19:58.090Z,-2.10
2022-12-27T08:25:01.554Z,-2.27
2022-12-27T08:30:05.899Z,-2.18
2022-12-27T08:35:41.994Z,-2.13
2022-12-27T08:40:31.526Z,-2.35
2022-12-27T08:45:34.127Z,-2.12
2022-12-27T08:50:39.263Z,-2.05
2022-12-27T08:55:42.248Z,-2.04
2022-12-27T09:00:44.793Z,-2.21
2022-12-27T09:05:50.272Z,-1.91
2022-12-27T09:10:53.028Z,-1.75
2022-12-27T09:15:55.610Z,-1.74
2022-12-27T09:21:13.522Z,-1.53
2022-12-27T09:26:17.436Z,-1.44
2022-12-27T09:31:23.130Z,-1.27
2022-12-27T09:36:28.387Z,-1.06
2022-12-27T09:47:13.623Z,-1.09
2022-12-27T09:52:38.531Z,-1.20
2022-12-27T09:57:47.527Z,-1.20
2022-12-27T10:02:52.433Z,-1.43
2022-12-27T10:08:17.785Z,-1.28
2022-12-27T10:13:21.752Z,-1.25
2022-12-27T10:18:49.027Z,-1.32
2022-12-27T10:24:01.827Z,-1.47
2022-12-27T10:29:15.682Z,-1.61
2022-12-27T10:34:24.799Z,-1.53
2022-12-27T10:39:31.086Z,-1.32
2022-12-27T10:44:34.288Z,-1.24
2022-12-27T10:49:38.000Z,-1.51
2022-12-27T10:54:52.539Z,-1.41
2022-12-27T11:00:24.610Z,-1.53
2022-12-27T11:05:32.404Z,-1.65
2022-12-27T11:10:35.194Z,-1.61
2022-12-27T11:15:41.357Z,-1.67
2022-12-27T11:20:51.449Z,-1.80
2022-12-27T11:25:59.839Z,-1.77
2022-12-27T11:31:15.257Z,-1.74
2022-12-27T11:36:31.259Z,-1.94
2022-12-27T11:41:47.632Z,-2.05
2022-12-27T11:46:59.309Z,-1.95
2022-12-27T11:52:24.798Z,-2.01
2022-12-27T11:58:00.683Z,-2.07
2022-12-27T12:03:34.933Z,-2.09
2022-12-27T12:08:46.580Z,-2.21
2022-12-27T12:14:09.299Z,-2.11
2022-12-27T12:19:17.772Z,-2.07
2022-12-27T12:24:26.785Z,-2.09
2022-12-27T12:30:00.110Z,-2.13
2022-12-27T12:35:47.011Z,-2.36
2022-12-27T12:41:10.908Z,-2.13
2022-12-27T12:46:38.717Z,-2.30
2022-12-27T12:51:47.430Z,-2.32
2022-12-27T12:56:59.215Z,-2.31
2022-12-27T13:02:01.842Z,-2.07
2022-12-27T13:07:13.610Z,-2.04
2022-12-27T13:12:52.280Z,-2.22
2022-12-27T13:18:32.670Z,-2.23
2022-12-27T13:23:59.432Z,-2.20
2022-12-27T13:29:39.239Z,-2.34
2022-12-27T13:35:22.648Z,-2.17
2022-12-27T13:40:56.241Z,-2.21
2022-12-27T13:46:16.704Z,-2.15
2022-12-27T13:51:42.390Z,-2.09
2022-12-27T13:56:54.854Z,-2.15
2022-12-27T14:02:35.046Z,-2.25
2022-12-27T14:07:56.543Z,-2.05
2022-12-27T14:13:01.805Z,-2.03
2022-12-27T14:18:23.347Z,-2.14
2022-12-27T14:24:05.386Z,-2.10
2022-12-27T14:29:27.789Z,-2.00
2022-12-27T14:35:07.294Z,-1.89
2022-12-27T14:41:09.341Z,-2.02
2022-12-27T14:47:05.092Z,-1.98
2022-12-27T14:52:28.848Z,-2.06
2022-12-27T14:57:55.561Z,-1.98
2022-12-27T15:03:33.703Z,-1.92
2022-12-27T15:09:18.074Z,-1.98
2022-12-27T15:14:23.109Z,-1.97
2022-12-27T15:19:44.095Z,-1.95
2022-12-27T15:25:00.927Z,-1.93
2022-12-27T15:30:33.298Z,-1.94
2022-12-27T15:35:56.283Z,-2.04
2022-12-27T15:41:19.445Z,-1.91
2022-12-27T15:46:45.766Z,-2.04
2022-12-27T15:52:06.128Z,-2.06
2022-12-27T15:57:45.974Z,-1.90
2022-12-27T16:02:48.582Z,-1.94
2022-12-27T16:08:00.324Z,-2.14
2022-12-27T16:13:14.660Z,-2.00
2022-12-27T16:18:17.111Z,-1.97
2022-12-27T16:23:30.897Z,-1.98
2022-12-27T16:28:35.896Z,-2.06
2022-12-27T16:33:42.463Z,-2.01
2022-12-27T16:38:55.469Z,-2.09
2022-12-27T16:44:00.800Z,-2.03
2022-12-27T16:49:23.494Z,-2.00
2022-12-27T16:54:58.124Z,-2.05
2022-12-27T17:00:12.247Z,-2.09
2022-12-27T17:05:17.463Z,-2.11
2022-12-27T17:10:31.914Z,-2.15
2022-12-27T17:15:35.108Z,-2.09
2022-12-27T17:20:41.333Z,-2.06
2022-12-27T17:25:54.032Z,-2.12
2022-12-27T17:31:08.515Z,-2.03
2022-12-27T17:36:38.275Z,-2.08
2022-12-27T17:42:21.780Z,-2.14
2022-12-27T17:48:02.079Z,-2.24
2022-12-27T17:53:28.483Z,-2.29
2022-12-27T17:58:35.141Z,-2.34
2022-12-27T18:03:45.605Z,-2.25
2022-12-27T18:08:49.637Z,-2.30
2022-12-27T18:13:55.330Z,-2.28
2022-12-27T18:19:02.571Z,-2.29
2022-12-27T18:24:25.494Z,-2.25
2022-12-27T18:29:31.234Z,-2.28
2022-12-27T18:34:59.311Z,-2.19
2022-12-27T18:40:05.007Z,-2.30
2022-12-27T18:45:18.679Z,-2.26
2022-12-27T18:50:23.766Z,-2.41
2022-12-27T18:55:27.722Z,-2.29
2022-12-27T19:00:30.999Z,-2.21
2022-12-27T19:05:36.544Z,-2.12
2022-12-27T19:10:48.256Z,-2.12
2022-12-27T19:15:55.043Z,-2.17
2022-12-27T19:21:00.375Z,-2.13
2022-12-27T19:26:18.194Z,-2.15
2022-12-27T19:31:22.265Z,-2.03
2022-12-27T19:36:54.901Z,-2.15
2022-12-27T19:42:01.216Z,-2.18
2022-12-27T19:47:04.399Z,-2.13
2022-12-27T19:52:11.389Z,-2.16
2022-12-27T19:57:14.046Z,-2.22
2022-12-27T20:02:18.421Z,-2.25
2022-12-27T20:07:26.211Z,-2.28
2022-12-27T20:12:28.996Z,-2.36
2022-12-27T20:17:32.763Z,-2.32
2022-12-27T20:22:36.437Z,-2.35
2022-12-27T20:27:38.945Z,-2.37
2022-12-27T20:32:41.477Z,-2.36
2022-12-27T20:37:44.002Z,-2.37
2022-12-27T20:42:46.522Z,-2.40
2022-12-27T20:47:48.959Z,-2.38
2022-12-27T20:52:51.438Z,-2.40
2022-12-27T20:57:53.939Z,-2.28
2022-12-27T21:02:57.273Z,-2.30
2022-12-27T21:07:59.848Z,-2.25
2022-12-27T21:13:05.266Z,-2.27
2022-12-27T21:18:07.740Z,-2.28
2022-12-27T21:23:10.181Z,-2.23
2022-12-27T21:28:12.714Z,-2.26
2022-12-27T21:33:15.209Z,-2.25
2022-12-27T21:38:17.736Z,-2.23
2022-12-27T21:43:20.238Z,-2.17
2022-12-27T21:48:22.882Z,-2.16
2022-12-27T21:53:25.358Z,-2.28
2022-12-27T21:58:33.698Z,-2.28
2022-12-27T22:03:40.935Z,-2.30
2022-12-27T22:08:45.350Z,-2.37
2022-12-27T22:13:48.204Z,-2.40
2022-12-27T22:18:51.396Z,-2.37
2022-12-27T22:23:56.925Z,-2.38
2022-12-27T22:28:59.464Z,-2.34
2022-12-27T22:34:03.693Z,-2.34
2022-12-27T22:39:06.438Z,-2.39
2022-12-27T22:44:12.732Z,-2.29
2022-12-27T22:49:15.707Z,-2.31
2022-12-27T22:54:18.544Z,-2.45
2022-12-27T22:59:21.021Z,-2.55
2022-12-27T23:04:23.509Z,-2.64
2022-12-27T23:09:25.984Z,-2.73
2022-12-27T23:14:28.726Z,-2.70
2022-12-27T23:19:31.200Z,-2.68
2022-12-27T23:24:33.761Z,-2.69
2022-12-27T23:29:36.317Z,-2.69
2022-12-27T23:34:38.876Z,-2.75
2022-12-27T23:39:41.387Z,-2.77
2022-12-27T23:44:43.872Z,-2.78
2022-12-27T23:49:46.436Z,-2.80
2022-12-27T23:54:48.958Z,-2.79
2022-12-27T23:59:51.981Z,-2.83
